Terminal Aerodrome Forecast
Issued by NWS Cleveland, OH

Home | Current Version | Previous Version | Graphics & Text | Print | Product List | Glossary On
Versions: 1 2 3 4 5 6 7 8 9 10 11 12 13 14 15
871
FTUS41 KCLE 151120
TAFMFD
TAF
KMFD 151120Z 1512/1612 16010KT P6SM OVC200
     FM151900 19010G20KT P6SM OVC090
     FM152100 20015G25KT 3SM -SHRA BR OVC015
     FM152300 21015G25KT 6SM -SHRA BR OVC007
     FM160100 22015G25KT P6SM OVC007
     FM160400 25015G25KT P6SM OVC012
     FM160800 27012KT P6SM OVC025=

USA.gov is the U.S. government's official web portal to all federal, state and local government web resources and services.